Time;durP1;ratioP1;P1;durP2;ratioP2;P2;SDS_P1;SDS_P2;PMS_P1;PMS_P2;Temp;Humidity;BMP_temperature;BMP_pressure;BME280_temperature;BME280_humidity;BME280_pressure;Samples;Min_cycle;Max_cycle;Signal;HPM_P1;HPM_P2
2022/05/03 00:02:04;;;;;;;11.70;8.15;;;9.20;99.90;;;;;;5095730;28;20101;-76
2022/05/03 00:04:35;;;;;;;12.80;7.85;;;9.10;99.90;;;;;;5096088;28;20461;-76
2022/05/03 00:07:09;;;;;;;12.18;7.80;;;9.20;99.90;;;;;;5095605;28;20047;-76
2022/05/03 00:09:52;;;;;;;11.77;8.60;;;9.10;99.90;;;;;;5094433;28;20055;-76
2022/05/03 00:12:23;;;;;;;11.98;8.35;;;9.10;99.90;;;;;;5094381;28;20044;-76
2022/05/03 00:14:56;;;;;;;10.20;8.23;;;9.00;99.90;;;;;;5094359;28;20051;-76
2022/05/03 00:17:22;;;;;;;15.30;9.20;;;8.90;99.90;;;;;;5095612;28;20135;-76
2022/05/03 00:19:48;;;;;;;14.63;9.18;;;8.80;99.90;;;;;;5094151;28;20044;-76
2022/05/03 00:22:14;;;;;;;14.00;9.07;;;8.70;99.90;;;;;;5095468;28;20032;-76
2022/05/03 00:24:41;;;;;;;13.88;10.35;;;8.60;99.90;;;;;;5095402;28;20089;-76
2022/05/03 00:27:07;;;;;;;14.13;9.70;;;8.50;99.90;;;;;;5095324;28;20052;-76
2022/05/03 00:29:33;;;;;;;13.55;9.90;;;8.50;99.90;;;;;;5095165;28;20149;-76
2022/05/03 00:32:03;;;;;;;17.00;11.45;;;8.40;99.90;;;;;;5093881;28;20051;-75
2022/05/03 00:34:35;;;;;;;14.68;10.52;;;8.40;99.90;;;;;;5095234;28;20082;-76
2022/05/03 00:37:01;;;;;;;15.57;11.45;;;8.30;99.90;;;;;;5095046;28;20040;-76
2022/05/03 00:39:27;;;;;;;14.98;10.68;;;8.20;99.90;;;;;;5095089;28;20036;-76
2022/05/03 00:41:57;;;;;;;16.90;12.82;;;8.20;99.90;;;;;;5093770;28;20071;-76
2022/05/03 00:47:29;;;;;;;16.52;12.50;;;8.00;99.90;;;;;;5093653;28;20048;-75
2022/05/03 00:50:34;;;;;;;18.20;13.07;;;8.00;99.90;;;;;;5093677;28;20059;-75
2022/05/03 00:53:09;;;;;;;19.65;13.95;;;8.00;99.90;;;;;;4996334;28;20402;-75
2022/05/03 00:56:10;;;;;;;19.70;14.25;;;8.10;99.90;;;;;;5079857;28;20075;-75
2022/05/03 00:59:05;;;;;;;19.60;14.40;;;8.10;99.90;;;;;;5094764;28;20047;-75
2022/05/03 01:01:44;;;;;;;23.02;15.85;;;8.00;99.90;;;;;;5093416;28;20479;-76
2022/05/03 01:04:38;;;;;;;20.05;15.05;;;8.00;99.90;;;;;;5093381;28;20491;-75
2022/05/03 01:07:25;;;;;;;21.77;16.02;;;8.00;99.90;;;;;;5093197;28;20051;-76
2022/05/03 01:10:13;;;;;;;22.90;17.13;;;8.00;99.90;;;;;;5093451;28;20074;-74
2022/05/03 01:12:58;;;;;;;26.88;16.77;;;8.00;99.90;;;;;;5094491;28;20040;-74
2022/05/03 01:15:29;;;;;;;25.35;16.27;;;8.30;99.90;;;;;;5093296;28;20552;-74
2022/05/03 01:18:10;;;;;;;20.55;14.40;;;8.50;99.90;;;;;;5092474;28;20065;-74
2022/05/03 01:20:47;;;;;;;26.00;16.88;;;8.60;99.90;;;;;;5093281;28;20126;-74
2022/05/03 01:23:37;;;;;;;26.48;16.50;;;8.80;99.90;;;;;;5094498;28;20048;-78
2022/05/03 01:26:40;;;;;;;24.67;16.23;;;9.00;99.90;;;;;;5093101;28;20044;-76
2022/05/03 01:29:32;;;;;;;27.53;18.37;;;9.10;99.90;;;;;;5094263;28;20055;-74
2022/05/03 01:32:19;;;;;;;26.42;16.90;;;9.20;99.90;;;;;;5094206;28;20040;-76
2022/05/03 01:34:46;;;;;;;29.73;17.75;;;9.20;99.90;;;;;;5094387;28;20044;-76
2022/05/03 01:37:46;;;;;;;28.15;17.15;;;9.30;99.90;;;;;;5092767;28;20048;-76
2022/05/03 01:40:35;;;;;;;28.02;17.73;;;9.30;99.90;;;;;;5092986;28;20047;-76
2022/05/03 01:43:18;;;;;;;31.40;18.00;;;9.30;99.90;;;;;;5094054;28;20105;-76
2022/05/03 01:46:07;;;;;;;30.05;17.98;;;9.50;99.90;;;;;;5094089;28;20142;-76
2022/05/03 01:51:50;;;;;;;32.78;18.92;;;9.60;99.90;;;;;;5093970;28;20127;-75
2022/05/03 01:54:39;;;;;;;34.72;18.58;;;9.70;99.90;;;;;;5093849;28;20098;-75
2022/05/03 01:57:23;;;;;;;38.97;21.38;;;9.70;99.90;;;;;;5092478;28;20040;-75
2022/05/03 02:00:08;;;;;;;41.10;21.85;;;9.70;99.90;;;;;;5092768;28;20090;-76
2022/05/03 02:02:53;;;;;;;43.13;22.00;;;9.80;99.90;;;;;;5092290;28;20044;-76
2022/05/03 02:05:56;;;;;;;51.50;25.42;;;9.80;99.90;;;;;;5093765;28;20088;-75
2022/05/03 02:08:23;;;;;;;45.75;24.00;;;9.80;99.90;;;;;;5093783;28;20066;-75
2022/05/03 02:11:11;;;;;;;41.42;21.38;;;9.90;99.90;;;;;;5093647;28;20487;-76
2022/05/03 02:16:42;;;;;;;37.72;22.58;;;10.00;99.90;;;;;;5093564;28;20080;-75
2022/05/03 02:19:37;;;;;;;41.67;21.00;;;10.00;99.90;;;;;;5093549;28;20521;-75
2022/05/03 02:22:27;;;;;;;38.88;22.00;;;10.00;99.90;;;;;;5093682;28;20040;-75
2022/05/03 02:25:21;;;;;;;37.40;21.50;;;10.00;99.90;;;;;;5092588;28;20059;-75
2022/05/03 02:27:54;;;;;;;41.10;22.63;;;10.10;99.90;;;;;;5041547;28;20060;-76
2022/05/03 02:30:20;;;;;;;38.47;22.48;;;10.00;99.90;;;;;;5095415;28;20056;-76
2022/05/03 02:33:09;;;;;;;34.30;19.48;;;10.00;99.90;;;;;;5096302;28;20575;-76
2022/05/03 02:35:35;;;;;;;34.15;19.40;;;10.00;99.90;;;;;;5096543;28;20059;-76
2022/05/03 02:38:06;;;;;;;35.42;20.60;;;10.00;99.90;;;;;;5097531;28;20475;-76
2022/05/03 02:40:32;;;;;;;36.22;20.23;;;10.00;99.90;;;;;;5097428;28;20044;-76
2022/05/03 02:42:58;;;;;;;39.22;22.05;;;10.00;99.90;;;;;;5095994;28;20051;-76
2022/05/03 02:45:24;;;;;;;36.22;20.70;;;10.00;99.90;;;;;;5095908;28;20044;-76
2022/05/03 02:48:14;;;;;;;38.38;22.05;;;10.00;99.90;;;;;;5097140;28;20035;-76
2022/05/03 02:50:43;;;;;;;40.15;22.83;;;10.00;99.90;;;;;;5097322;28;20044;-76
2022/05/03 02:53:24;;;;;;;40.95;22.58;;;10.00;99.90;;;;;;5097365;28;20056;-76
2022/05/03 02:55:51;;;;;;;39.05;23.20;;;10.00;99.90;;;;;;5096031;28;20071;-76
2022/05/03 02:58:23;;;;;;;49.92;22.75;;;10.00;99.90;;;;;;5095979;28;20434;-76
2022/05/03 03:04:32;;;;;;;37.75;20.90;;;10.00;99.90;;;;;;5095347;28;20067;-76
2022/05/03 03:06:59;;;;;;;35.20;19.90;;;10.20;99.90;;;;;;5095328;28;20086;-76
2022/05/03 03:09:31;;;;;;;34.10;21.60;;;10.20;99.90;;;;;;5095879;28;20054;-76
2022/05/03 03:12:03;;;;;;;37.15;22.63;;;10.20;99.90;;;;;;5097318;28;20043;-75
2022/05/03 03:14:42;;;;;;;35.10;22.37;;;10.20;99.90;;;;;;5096729;28;20127;-74
2022/05/03 03:17:10;;;;;;;28.63;19.00;;;10.30;99.90;;;;;;5096807;28;20345;-74
2022/05/03 03:19:55;;;;;;;32.63;18.42;;;10.20;99.90;;;;;;5095668;28;20055;-75
2022/05/03 03:22:21;;;;;;;33.10;19.95;;;10.30;99.90;;;;;;5095120;28;20052;-75
2022/05/03 03:24:49;;;;;;;33.38;18.83;;;10.30;99.90;;;;;;5095187;28;20048;-75
2022/05/03 03:27:19;;;;;;;33.30;18.58;;;10.30;99.90;;;;;;5096461;28;20048;-75
2022/05/03 03:29:47;;;;;;;30.85;19.63;;;10.30;99.90;;;;;;5095440;28;20047;-75
2022/05/03 03:32:17;;;;;;;29.38;18.27;;;10.30;99.90;;;;;;5096354;28;20054;-75
2022/05/03 03:34:47;;;;;;;32.28;18.45;;;10.30;99.90;;;;;;5096361;28;20044;-75
2022/05/03 03:37:16;;;;;;;33.85;21.20;;;10.30;99.90;;;;;;5096443;28;20089;-74
2022/05/03 03:39:41;;;;;;;31.63;19.40;;;10.30;99.90;;;;;;5096268;28;20062;-76
2022/05/03 03:42:07;;;;;;;34.08;19.30;;;10.40;99.90;;;;;;5095662;28;20043;-76
2022/05/03 03:44:34;;;;;;;31.20;17.60;;;10.40;99.90;;;;;;5095147;28;20123;-75
2022/05/03 03:47:02;;;;;;;30.90;18.85;;;10.40;99.90;;;;;;5096173;28;20105;-75
2022/05/03 03:49:31;;;;;;;28.73;17.00;;;10.40;99.90;;;;;;5095915;28;20486;-75
2022/05/03 03:52:00;;;;;;;30.70;18.35;;;10.40;99.90;;;;;;5096045;28;20058;-75
2022/05/03 03:54:26;;;;;;;32.60;17.23;;;10.50;99.90;;;;;;5096135;28;20479;-75
2022/05/03 03:56:54;;;;;;;31.15;17.23;;;10.40;99.90;;;;;;5094645;28;20398;-75
2022/05/03 03:59:19;;;;;;;34.85;18.73;;;10.40;99.90;;;;;;5094921;28;20090;-75
2022/05/03 04:01:48;;;;;;;27.77;16.77;;;10.30;99.90;;;;;;5095579;28;20095;-75
2022/05/03 04:04:16;;;;;;;31.10;17.00;;;10.30;99.90;;;;;;5095705;28;20127;-75
2022/05/03 04:06:42;;;;;;;36.40;18.27;;;10.30;99.90;;;;;;5095683;28;20043;-76
2022/05/03 04:09:08;;;;;;;29.65;15.95;;;10.40;99.90;;;;;;5094347;28;20063;-75
2022/05/03 04:11:44;;;;;;;31.40;18.27;;;10.40;99.90;;;;;;5095700;28;20048;-75
2022/05/03 04:14:14;;;;;;;28.50;16.58;;;10.40;99.90;;;;;;5095463;28;20122;-75
2022/05/03 04:16:40;;;;;;;28.73;16.15;;;10.40;99.90;;;;;;5093999;28;20040;-75
2022/05/03 04:19:07;;;;;;;31.98;17.40;;;10.40;99.90;;;;;;5095492;28;20097;-76
2022/05/03 04:21:33;;;;;;;26.70;14.43;;;10.50;99.90;;;;;;5095538;28;20048;-76
2022/05/03 04:23:59;;;;;;;26.80;13.63;;;10.40;99.90;;;;;;5094331;28;20048;-76
2022/05/03 04:26:25;;;;;;;19.05;10.68;;;10.40;99.90;;;;;;5094632;28;20039;-76
2022/05/03 04:28:56;;;;;;;19.77;9.80;;;10.40;99.90;;;;;;5093698;28;20040;-76
2022/05/03 04:31:28;;;;;;;14.13;8.57;;;10.40;99.90;;;;;;5093804;28;20399;-76
2022/05/03 04:33:54;;;;;;;18.17;7.63;;;10.40;99.90;;;;;;5093720;28;20048;-76
2022/05/03 04:36:21;;;;;;;15.73;7.72;;;10.40;99.90;;;;;;5093627;28;20048;-76
2022/05/03 04:38:49;;;;;;;11.32;6.95;;;10.30;99.90;;;;;;5094880;28;20076;-76
2022/05/03 04:41:15;;;;;;;11.30;7.15;;;10.40;99.90;;;;;;5093499;28;20127;-76
2022/05/03 04:43:41;;;;;;;12.57;7.63;;;10.40;99.90;;;;;;5093776;28;20131;-76
2022/05/03 04:46:07;;;;;;;13.38;7.50;;;10.40;99.90;;;;;;5093428;28;20036;-76
2022/05/03 04:48:33;;;;;;;9.98;6.93;;;10.40;99.90;;;;;;5093429;28;20063;-76
2022/05/03 04:50:58;;;;;;;12.60;7.45;;;10.40;99.90;;;;;;5093382;28;20044;-76
2022/05/03 04:53:24;;;;;;;9.45;7.07;;;10.40;99.90;;;;;;5092260;28;20052;-76
2022/05/03 04:55:50;;;;;;;10.93;6.88;;;10.40;99.90;;;;;;5093175;28;20055;-74
2022/05/03 04:58:16;;;;;;;9.40;6.30;;;10.40;99.90;;;;;;5093199;28;20076;-74
2022/05/03 05:00:42;;;;;;;12.05;6.05;;;10.40;99.90;;;;;;5094432;28;20044;-74
2022/05/03 05:03:07;;;;;;;11.73;5.32;;;10.40;99.90;;;;;;5094208;28;20487;-75
2022/05/03 05:05:33;;;;;;;11.90;5.38;;;10.50;99.90;;;;;;5094608;28;20471;-74
2022/05/03 05:08:06;;;;;;;12.73;5.10;;;10.40;99.90;;;;;;5094409;28;20076;-74
2022/05/03 05:10:33;;;;;;;15.88;5.22;;;10.40;99.90;;;;;;5093155;28;20044;-74
2022/05/03 05:13:00;;;;;;;12.55;4.35;;;10.40;99.90;;;;;;5094095;28;20392;-74
2022/05/03 05:15:29;;;;;;;20.42;5.80;;;10.40;99.90;;;;;;5092956;28;20040;-74
2022/05/03 05:17:57;;;;;;;13.90;5.10;;;10.40;99.90;;;;;;5094104;28;20399;-74
2022/05/03 05:20:25;;;;;;;14.13;5.03;;;10.30;99.90;;;;;;5093091;28;20055;-74
2022/05/03 05:22:52;;;;;;;11.18;4.63;;;10.40;99.90;;;;;;5094299;28;20050;-74
2022/05/03 05:25:18;;;;;;;12.40;3.80;;;10.40;99.90;;;;;;5094278;28;20040;-74
2022/05/03 05:27:44;;;;;;;11.82;4.18;;;10.40;99.90;;;;;;5092634;28;20052;-75
2022/05/03 05:30:11;;;;;;;15.00;4.10;;;10.40;99.90;;;;;;5093897;28;20048;-75
2022/05/03 05:32:37;;;;;;;11.98;4.50;;;10.40;99.90;;;;;;5092520;28;20048;-75
2022/05/03 05:35:04;;;;;;;10.57;3.83;;;10.30;99.90;;;;;;5092927;28;20502;-74
2022/05/03 05:37:31;;;;;;;15.30;4.55;;;10.30;99.90;;;;;;5092764;28;20494;-75
2022/05/03 05:39:56;;;;;;;15.07;4.32;;;10.30;99.90;;;;;;5094012;28;20080;-75
2022/05/03 05:42:22;;;;;;;12.98;4.20;;;10.30;99.90;;;;;;5092523;28;20090;-75
2022/05/03 05:44:48;;;;;;;15.00;4.18;;;10.30;99.90;;;;;;5092457;28;20040;-75
2022/05/03 05:47:14;;;;;;;16.75;4.97;;;10.20;99.90;;;;;;5092457;28;20055;-75
2022/05/03 05:49:40;;;;;;;14.95;3.67;;;10.20;99.90;;;;;;5093679;28;20489;-75
2022/05/03 05:54:50;;;;;;;12.82;3.80;;;10.20;99.90;;;;;;5092307;28;20057;-75
2022/05/03 05:57:15;;;;;;;17.45;4.50;;;10.10;99.90;;;;;;5092262;28;20044;-75
2022/05/03 05:59:41;;;;;;;11.02;3.40;;;10.10;99.90;;;;;;5092424;28;20043;-75
2022/05/03 06:02:07;;;;;;;15.05;3.90;;;10.10;99.90;;;;;;5092213;28;20056;-75
2022/05/03 06:04:35;;;;;;;13.25;3.55;;;10.10;99.90;;;;;;5092087;28;20071;-74
2022/05/03 06:07:01;;;;;;;14.70;3.30;;;10.10;99.90;;;;;;5093703;28;20036;-74
2022/05/03 06:09:26;;;;;;;11.18;3.45;;;10.10;99.90;;;;;;5093793;28;20123;-75
2022/05/03 06:11:52;;;;;;;12.25;4.28;;;10.10;99.90;;;;;;5093468;28;20135;-75
2022/05/03 06:14:18;;;;;;;12.38;3.53;;;10.10;99.90;;;;;;5093563;28;20040;-75
2022/05/03 06:16:48;;;;;;;7.25;2.45;;;10.10;99.90;;;;;;5092434;28;20040;-75
2022/05/03 06:19:14;;;;;;;10.98;3.08;;;10.10;99.90;;;;;;5092153;28;20047;-75
2022/05/03 06:21:39;;;;;;;13.85;3.10;;;10.10;99.90;;;;;;5070586;28;20056;-75
2022/05/03 06:24:06;;;;;;;11.88;3.75;;;10.10;99.90;;;;;;5054964;28;20052;-74
2022/05/03 06:26:32;;;;;;;9.05;2.90;;;10.10;99.90;;;;;;5051879;28;20094;-74
2022/05/03 06:28:58;;;;;;;12.57;4.07;;;10.10;99.90;;;;;;5051833;28;20053;-75
2022/05/03 06:31:24;;;;;;;9.77;2.78;;;10.10;99.90;;;;;;5052822;28;20045;-74
2022/05/03 06:33:50;;;;;;;13.77;2.88;;;10.10;99.90;;;;;;5052951;28;20090;-75
2022/05/03 06:36:16;;;;;;;11.07;3.70;;;10.20;99.90;;;;;;5052687;28;20143;-74
2022/05/03 06:38:43;;;;;;;17.88;3.95;;;10.20;99.90;;;;;;5051541;28;20112;-75
2022/05/03 06:41:09;;;;;;;12.50;4.63;;;10.20;99.90;;;;;;5052939;28;20077;-74
2022/05/03 06:43:35;;;;;;;9.35;2.83;;;10.30;99.90;;;;;;5051356;28;20146;-75
2022/05/03 06:46:00;;;;;;;13.95;3.72;;;10.20;99.90;;;;;;5051429;28;20190;-74
2022/05/03 06:48:26;;;;;;;13.80;2.95;;;10.20;99.90;;;;;;5085096;28;20053;-75
2022/05/03 06:50:52;;;;;;;18.60;3.63;;;10.30;99.90;;;;;;5052597;28;20396;-75
2022/05/03 06:53:17;;;;;;;11.65;2.83;;;10.30;99.90;;;;;;5051277;28;20504;-74
2022/05/03 06:55:43;;;;;;;10.07;2.90;;;10.30;99.90;;;;;;5051312;28;20049;-76
2022/05/03 06:58:09;;;;;;;10.98;2.70;;;10.30;99.90;;;;;;5052814;28;20064;-76
2022/05/03 07:00:34;;;;;;;13.02;2.72;;;10.30;99.90;;;;;;5085116;28;20048;-76
2022/05/03 07:03:00;;;;;;;10.40;2.80;;;10.30;99.90;;;;;;5051170;28;20464;-76
2022/05/03 07:05:26;;;;;;;14.82;2.67;;;10.30;99.90;;;;;;5052813;28;20040;-77
2022/05/03 07:07:51;;;;;;;8.52;3.17;;;10.30;99.90;;;;;;5051560;28;20052;-76
2022/05/03 07:10:17;;;;;;;10.52;3.63;;;10.30;99.90;;;;;;5051727;28;20044;-76
2022/05/03 07:12:43;;;;;;;14.55;2.58;;;10.30;99.90;;;;;;5051483;28;20041;-76
2022/05/03 07:15:09;;;;;;;10.73;2.78;;;10.40;99.90;;;;;;5085299;28;20447;-79
2022/05/03 07:23:04;;;;;;;9.57;2.50;;;10.50;99.90;;;;;;5055984;28;20411;-78
2022/05/03 07:25:31;;;;;;;9.30;2.25;;;10.60;99.90;;;;;;5056341;28;20044;-78
2022/05/03 07:27:57;;;;;;;9.65;2.38;;;10.70;99.90;;;;;;5054739;28;20056;-78
2022/05/03 07:30:23;;;;;;;14.68;2.85;;;10.70;99.90;;;;;;5054916;28;20131;-78
2022/05/03 07:32:48;;;;;;;7.78;1.80;;;10.70;99.90;;;;;;5055823;28;20132;-78
2022/05/03 07:35:14;;;;;;;24.33;3.10;;;10.70;99.90;;;;;;5055860;28;20088;-78
2022/05/03 07:37:40;;;;;;;7.70;2.50;;;10.80;99.90;;;;;;5056073;28;20048;-78
2022/05/03 07:40:08;;;;;;;11.13;2.70;;;10.90;99.90;;;;;;5054703;28;20052;-77
2022/05/03 07:42:34;;;;;;;9.38;2.60;;;10.90;99.90;;;;;;5054821;28;20515;-77
2022/05/03 07:45:00;;;;;;;10.13;3.15;;;10.90;99.90;;;;;;5055877;28;20041;-77
2022/05/03 07:47:26;;;;;;;10.85;3.00;;;11.00;99.90;;;;;;5054557;28;20045;-77
2022/05/03 07:49:51;;;;;;;8.63;2.47;;;11.00;99.90;;;;;;5055561;28;20080;-77
2022/05/03 07:52:17;;;;;;;10.02;2.50;;;11.00;99.90;;;;;;5054336;28;20052;-77
2022/05/03 07:54:44;;;;;;;10.60;1.80;;;11.00;99.90;;;;;;5055619;28;20045;-77
2022/05/03 07:57:12;;;;;;;12.88;2.40;;;11.10;99.90;;;;;;5055573;28;20073;-77
2022/05/03 07:59:39;;;;;;;6.35;1.98;;;11.10;99.90;;;;;;5054076;28;20128;-77
2022/05/03 08:02:04;;;;;;;6.05;2.25;;;11.10;99.90;;;;;;5055300;28;20118;-77
2022/05/03 08:04:30;;;;;;;12.70;2.85;;;11.20;99.90;;;;;;5055514;28;20044;-77
2022/05/03 08:06:56;;;;;;;12.45;2.38;;;11.20;99.90;;;;;;5055401;28;20047;-77
2022/05/03 08:09:21;;;;;;;7.53;1.70;;;11.20;99.90;;;;;;5055066;28;20048;-77
2022/05/03 08:11:47;;;;;;;7.10;2.00;;;11.30;99.90;;;;;;5037232;28;20594;-77
2022/05/03 08:14:13;;;;;;;9.45;2.30;;;11.30;99.90;;;;;;5053808;28;20045;-77
2022/05/03 08:16:39;;;;;;;6.68;1.60;;;11.30;99.90;;;;;;5055323;28;20052;-77
2022/05/03 08:19:05;;;;;;;5.07;2.13;;;11.40;99.90;;;;;;5055183;28;20044;-77
2022/05/03 08:21:35;;;;;;;11.00;2.20;;;11.40;99.90;;;;;;5055008;28;20045;-77
2022/05/03 08:24:02;;;;;;;10.15;2.22;;;11.50;99.90;;;;;;5055249;28;20116;-77
2022/05/03 08:26:29;;;;;;;6.20;2.25;;;11.60;99.90;;;;;;5055055;28;20041;-77
2022/05/03 08:28:55;;;;;;;8.38;2.22;;;11.60;99.90;;;;;;5054919;28;20045;-77
2022/05/03 08:31:20;;;;;;;6.85;1.98;;;11.70;99.90;;;;;;5054807;28;20043;-76
2022/05/03 08:33:47;;;;;;;6.40;1.48;;;11.90;99.90;;;;;;5053503;28;20118;-77
2022/05/03 08:36:13;;;;;;;9.40;2.47;;;11.90;99.90;;;;;;5053631;28;20045;-77
2022/05/03 08:44:08;;;;;;;7.82;1.90;;;12.10;99.90;;;;;;5054920;28;20146;-76
2022/05/03 08:46:36;;;;;;;7.72;1.85;;;12.20;99.90;;;;;;5054756;28;20084;-77
2022/05/03 08:49:04;;;;;;;8.60;1.90;;;12.40;99.90;;;;;;5053624;28;20124;-77
2022/05/03 08:51:32;;;;;;;6.38;1.83;;;12.50;99.90;;;;;;5054646;28;20162;-77
2022/05/03 08:53:59;;;;;;;5.93;1.45;;;12.60;99.90;;;;;;5053002;28;20053;-77
2022/05/03 08:56:26;;;;;;;10.70;2.00;;;12.70;99.90;;;;;;5053013;28;20048;-77
2022/05/03 08:58:52;;;;;;;9.18;1.80;;;12.60;99.90;;;;;;5053580;28;20142;-78
2022/05/03 09:01:18;;;;;;;7.07;1.85;;;12.80;99.90;;;;;;5054621;28;20454;-78
2022/05/03 09:03:44;;;;;;;7.13;2.03;;;12.70;99.90;;;;;;5052751;28;20064;-78
2022/05/03 09:06:10;;;;;;;8.75;1.95;;;12.80;99.90;;;;;;5053102;28;20040;-78
2022/05/03 09:08:37;;;;;;;8.25;1.60;;;12.90;99.90;;;;;;5052819;28;20095;-78
2022/05/03 09:11:16;;;;;;;6.80;1.50;;;13.10;99.90;;;;;;5054324;28;20045;-78
2022/05/03 09:13:43;;;;;;;6.28;1.73;;;13.10;99.90;;;;;;5053203;28;20365;-78
2022/05/03 09:16:17;;;;;;;9.20;1.33;;;13.10;99.90;;;;;;5052819;28;20041;-77
2022/05/03 09:18:45;;;;;;;5.93;1.45;;;13.30;99.90;;;;;;5053910;28;20403;-77
2022/05/03 09:24:12;;;;;;;6.75;1.30;;;13.50;99.90;;;;;;5052622;28;20174;-78
2022/05/03 09:26:39;;;;;;;8.35;1.70;;;13.50;99.90;;;;;;5052664;28;20488;-78
2022/05/03 09:29:10;;;;;;;6.82;2.05;;;13.50;99.90;;;;;;5052462;28;20052;-78
2022/05/03 09:31:39;;;;;;;6.30;1.40;;;13.50;99.90;;;;;;5053689;28;20446;-78
2022/05/03 09:34:19;;;;;;;10.65;1.67;;;13.70;99.90;;;;;;5053887;28;20048;-78
2022/05/03 09:36:52;;;;;;;6.72;1.40;;;13.80;99.90;;;;;;5053785;28;20052;-78
2022/05/03 09:39:21;;;;;;;7.57;1.40;;;13.90;99.90;;;;;;5051735;28;20056;-78
2022/05/03 09:42:10;;;;;;;7.32;1.45;;;14.00;99.90;;;;;;5052623;28;20044;-78
2022/05/03 09:44:40;;;;;;;6.05;1.15;;;14.00;99.90;;;;;;5052513;28;20480;-78
2022/05/03 09:47:09;;;;;;;10.00;1.92;;;14.20;99.90;;;;;;5052201;28;20051;-77
2022/05/03 09:49:42;;;;;;;5.97;1.45;;;14.40;99.90;;;;;;5052353;28;20381;-78
2022/05/03 09:52:21;;;;;;;8.05;1.55;;;14.40;99.90;;;;;;5053380;28;20123;-78
2022/05/03 09:54:48;;;;;;;8.05;1.50;;;14.50;99.90;;;;;;5052034;28;20179;-77
2022/05/03 09:57:22;;;;;;;8.32;1.80;;;14.50;99.90;;;;;;5053345;28;20094;-77
2022/05/03 09:59:54;;;;;;;6.38;1.52;;;14.50;99.90;;;;;;5053285;28;20502;-77
2022/05/03 10:02:22;;;;;;;3.38;1.27;;;14.50;99.90;;;;;;5051913;28;20057;-77
2022/05/03 10:04:50;;;;;;;7.78;1.48;;;14.50;99.90;;;;;;5053378;28;20051;-77
2022/05/03 10:07:16;;;;;;;8.00;1.60;;;14.50;99.90;;;;;;5052188;28;20052;-77
2022/05/03 10:09:43;;;;;;;5.45;1.90;;;14.60;99.90;;;;;;5052153;28;20049;-77
2022/05/03 10:12:11;;;;;;;6.68;1.50;;;14.60;99.90;;;;;;5051852;28;20408;-77
2022/05/03 10:14:38;;;;;;;10.38;1.67;;;14.60;99.90;;;;;;5085390;28;20056;-77
2022/05/03 10:22:39;;;;;;;4.57;1.60;;;14.40;99.90;;;;;;5053368;28;20134;-78
2022/05/03 10:25:06;;;;;;;8.48;1.52;;;14.40;99.90;;;;;;5052041;28;20567;-78
2022/05/03 10:27:53;;;;;;;4.60;1.25;;;14.50;99.90;;;;;;5053301;28;20064;-78
2022/05/03 10:30:22;;;;;;;5.63;1.50;;;14.50;99.90;;;;;;5051962;28;20045;-78
2022/05/03 10:33:19;;;;;;;8.13;1.88;;;14.60;99.90;;;;;;5051668;28;20119;-78
2022/05/03 10:35:48;;;;;;;10.02;1.80;;;14.60;99.90;;;;;;5053252;28;20041;-78
2022/05/03 10:38:15;;;;;;;7.60;1.65;;;14.60;99.90;;;;;;5051909;28;20098;-77
2022/05/03 10:40:48;;;;;;;10.13;1.50;;;14.80;99.90;;;;;;5053186;28;20036;-77
2022/05/03 10:43:27;;;;;;;5.22;1.85;;;14.80;99.90;;;;;;5052810;28;20393;-77
2022/05/03 10:46:13;;;;;;;3.92;1.40;;;14.60;99.90;;;;;;5052819;28;20045;-77
2022/05/03 10:48:43;;;;;;;9.45;1.90;;;14.70;99.90;;;;;;5053131;28;20048;-78
2022/05/03 10:51:11;;;;;;;4.47;1.55;;;14.60;99.90;;;;;;5053368;28;20037;-78
2022/05/03 10:53:40;;;;;;;5.53;1.40;;;14.50;99.90;;;;;;5056802;28;20052;-78
2022/05/03 10:56:10;;;;;;;7.55;1.50;;;14.40;99.90;;;;;;5056612;28;20119;-77
2022/05/03 10:58:39;;;;;;;6.68;1.75;;;14.40;99.90;;;;;;5056449;28;20053;-77
2022/05/03 11:01:10;;;;;;;7.05;1.65;;;14.40;99.90;;;;;;5056423;28;20435;-78
2022/05/03 11:03:40;;;;;;;7.40;1.60;;;14.60;99.90;;;;;;5056259;28;20057;-78
2022/05/03 11:06:18;;;;;;;10.27;2.05;;;14.70;99.90;;;;;;5056452;28;20047;-78
2022/05/03 11:11:39;;;;;;;6.60;2.17;;;14.70;99.90;;;;;;5055367;28;20107;-78
2022/05/03 11:14:24;;;;;;;6.05;1.65;;;14.60;99.90;;;;;;5054910;28;20373;-78
2022/05/03 11:17:05;;;;;;;6.80;1.90;;;14.50;99.90;;;;;;5054936;28;20480;-78
2022/05/03 11:19:32;;;;;;;7.45;2.25;;;14.70;99.90;;;;;;5056445;28;20140;-78
2022/05/03 11:21:58;;;;;;;9.35;2.28;;;14.80;99.90;;;;;;5056385;28;20048;-78
2022/05/03 11:24:32;;;;;;;6.43;1.48;;;14.90;99.90;;;;;;5055058;28;20400;-78
2022/05/03 11:27:05;;;;;;;8.05;1.73;;;15.00;99.90;;;;;;5054693;28;20400;-78
2022/05/03 11:29:41;;;;;;;8.85;1.80;;;14.90;99.90;;;;;;5056409;28;20553;-78
2022/05/03 11:32:08;;;;;;;8.73;2.28;;;14.70;99.90;;;;;;5088440;28;20056;-78
2022/05/03 11:34:34;;;;;;;8.48;1.90;;;14.70;99.90;;;;;;5055751;28;20443;-78
2022/05/03 11:37:02;;;;;;;5.97;1.67;;;14.50;99.90;;;;;;5055762;28;20495;-78
2022/05/03 11:39:28;;;;;;;11.63;2.58;;;14.50;99.90;;;;;;5054819;28;20094;-78
2022/05/03 11:41:54;;;;;;;6.25;1.83;;;14.50;99.90;;;;;;5056033;28;20187;-78
2022/05/03 11:44:20;;;;;;;7.60;1.90;;;14.60;99.90;;;;;;5055576;28;20048;-77
2022/05/03 11:46:48;;;;;;;7.13;2.55;;;14.40;99.90;;;;;;5055914;28;20175;-78
2022/05/03 11:49:17;;;;;;;8.25;1.90;;;14.50;99.90;;;;;;5054629;28;20517;-77
2022/05/03 11:57:23;;;;;;;8.70;2.00;;;14.60;99.90;;;;;;5055819;28;20049;-77
2022/05/03 11:59:58;;;;;;;7.05;2.20;;;14.80;99.90;;;;;;5053927;28;20295;-77
2022/05/03 12:02:36;;;;;;;5.97;2.22;;;14.80;99.90;;;;;;5053658;28;20057;-78
2022/05/03 12:05:06;;;;;;;6.35;1.60;;;14.90;99.90;;;;;;5055423;28;20045;-77
2022/05/03 12:07:41;;;;;;;12.23;2.03;;;15.10;99.90;;;;;;5054324;28;20089;-77
2022/05/03 12:10:24;;;;;;;10.52;1.85;;;15.10;99.90;;;;;;5055401;28;20048;-77
2022/05/03 12:13:12;;;;;;;6.38;1.98;;;15.10;99.90;;;;;;5055480;28;20044;-77
2022/05/03 12:15:41;;;;;;;9.88;2.00;;;15.30;99.90;;;;;;5087761;28;20057;-78
2022/05/03 12:18:13;;;;;;;8.05;1.63;;;15.40;99.90;;;;;;5055238;28;20099;-77
2022/05/03 12:20:51;;;;;;;11.55;2.17;;;15.20;99.90;;;;;;5055279;28;20044;-77
2022/05/03 12:23:32;;;;;;;6.82;2.05;;;15.10;99.90;;;;;;5055185;28;20128;-77
2022/05/03 12:25:59;;;;;;;8.32;1.77;;;15.30;99.90;;;;;;5053885;28;20063;-78
2022/05/03 12:28:45;;;;;;;8.98;1.80;;;15.30;99.90;;;;;;5054854;28;20094;-77
2022/05/03 12:31:12;;;;;;;8.20;2.08;;;15.30;99.90;;;;;;5054908;28;20492;-77
2022/05/03 12:33:48;;;;;;;10.85;2.20;;;15.40;99.90;;;;;;5054971;28;20084;-78
2022/05/03 12:36:38;;;;;;;8.88;2.10;;;15.50;99.90;;;;;;5053374;28;20047;-78
2022/05/03 12:39:09;;;;;;;5.22;1.83;;;15.50;99.90;;;;;;5054917;28;20091;-78
2022/05/03 12:41:35;;;;;;;7.20;1.90;;;15.50;99.90;;;;;;5054762;28;20049;-78
2022/05/03 12:44:04;;;;;;;9.30;2.10;;;15.40;99.90;;;;;;5054750;28;20084;-78
2022/05/03 12:46:30;;;;;;;5.63;1.90;;;15.40;99.90;;;;;;5054492;28;20037;-79
2022/05/03 12:48:57;;;;;;;6.10;2.20;;;15.20;99.90;;;;;;5054563;28;20123;-78
2022/05/03 12:51:24;;;;;;;8.98;1.80;;;15.50;99.90;;;;;;5053765;28;20489;-78
2022/05/03 12:53:50;;;;;;;11.30;2.20;;;15.50;99.90;;;;;;5054361;28;20084;-78
2022/05/03 12:59:00;;;;;;;8.88;2.10;;;15.70;99.90;;;;;;5054509;28;20079;-78
2022/05/03 13:01:26;;;;;;;7.88;2.22;;;15.80;99.90;;;;;;5053237;28;20077;-80
2022/05/03 13:03:52;;;;;;;6.07;1.95;;;15.60;99.90;;;;;;5052842;28;20472;-78
2022/05/03 13:06:17;;;;;;;8.80;2.38;;;15.50;99.90;;;;;;5054149;28;20041;-78
2022/05/03 13:08:44;;;;;;;9.65;1.90;;;15.40;99.90;;;;;;5054336;28;20041;-77
2022/05/03 13:11:10;;;;;;;7.40;2.08;;;15.40;99.90;;;;;;5054257;28;20088;-80
2022/05/03 13:13:39;;;;;;;6.85;2.08;;;15.20;99.90;;;;;;5053633;28;20048;-80
2022/05/03 13:16:05;;;;;;;8.13;2.15;;;15.30;97.20;;;;;;5053802;28;20048;-76
2022/05/03 13:18:30;;;;;;;6.30;2.28;;;15.30;99.90;;;;;;5054189;28;20033;-76
2022/05/03 13:20:56;;;;;;;10.30;2.90;;;15.40;99.90;;;;;;5053870;28;20521;-76
2022/05/03 13:23:22;;;;;;;7.47;2.17;;;15.40;99.90;;;;;;5054077;28;20094;-80
2022/05/03 13:25:48;;;;;;;9.20;2.42;;;15.50;99.90;;;;;;5086393;28;20381;-78
2022/05/03 13:28:15;;;;;;;13.85;2.20;;;15.50;99.90;;;;;;5052573;28;20408;-78
2022/05/03 13:30:41;;;;;;;9.27;2.10;;;15.50;99.90;;;;;;5053894;28;20049;-78
2022/05/03 13:33:06;;;;;;;9.18;2.03;;;15.40;99.90;;;;;;5053556;28;20041;-77
2022/05/03 13:41:00;;;;;;;10.07;1.88;;;15.20;99.90;;;;;;5052164;28;20146;-76
2022/05/03 13:43:27;;;;;;;8.00;3.80;;;15.30;99.90;;;;;;5052173;28;20511;-75
2022/05/03 13:45:53;;;;;;;5.93;2.03;;;15.20;99.90;;;;;;5052514;28;20055;-75
2022/05/03 13:48:18;;;;;;;8.68;2.45;;;15.00;99.90;;;;;;5053511;28;20049;-78
2022/05/03 13:50:44;;;;;;;7.15;2.30;;;15.00;99.90;;;;;;5085809;28;20045;-77